sensor_id;sensor_type;location;lat;lon;timestamp;P1;durP1;ratioP1;P2;durP2;ratioP2
27889;SDS011;15238;49.082;9.102;2023-02-28T00:01:47;2.65;;;2.35;;
27889;SDS011;15238;49.082;9.102;2023-02-28T00:03:47;5.63;;;2.47;;
27889;SDS011;15238;49.082;9.102;2023-02-28T00:05:48;4.63;;;2.88;;
27889;SDS011;15238;49.082;9.102;2023-02-28T00:07:49;4.15;;;2.30;;
27889;SDS011;15238;49.082;9.102;2023-02-28T00:09:50;3.65;;;1.98;;
27889;SDS011;15238;49.082;9.102;2023-02-28T00:11:50;3.55;;;2.10;;
27889;SDS011;15238;49.082;9.102;2023-02-28T00:13:51;4.82;;;2.63;;
27889;SDS011;15238;49.082;9.102;2023-02-28T00:16:01;3.63;;;2.60;;
27889;SDS011;15238;49.082;9.102;2023-02-28T00:18:03;3.65;;;2.40;;
27889;SDS011;15238;49.082;9.102;2023-02-28T00:20:04;5.20;;;2.47;;
27889;SDS011;15238;49.082;9.102;2023-02-28T00:22:08;5.05;;;2.35;;
27889;SDS011;15238;49.082;9.102;2023-02-28T00:24:08;3.65;;;2.55;;
27889;SDS011;15238;49.082;9.102;2023-02-28T00:26:09;4.70;;;2.58;;
27889;SDS011;15238;49.082;9.102;2023-02-28T00:28:09;4.15;;;2.70;;
27889;SDS011;15238;49.082;9.102;2023-02-28T00:30:16;3.20;;;2.08;;
27889;SDS011;15238;49.082;9.102;2023-02-28T00:32:18;3.65;;;2.63;;
27889;SDS011;15238;49.082;9.102;2023-02-28T00:34:19;3.83;;;2.50;;
27889;SDS011;15238;49.082;9.102;2023-02-28T00:36:20;4.00;;;2.63;;
27889;SDS011;15238;49.082;9.102;2023-02-28T00:38:20;3.13;;;2.00;;
27889;SDS011;15238;49.082;9.102;2023-02-28T00:40:21;2.67;;;2.20;;
27889;SDS011;15238;49.082;9.102;2023-02-28T00:42:21;4.68;;;2.80;;
27889;SDS011;15238;49.082;9.102;2023-02-28T00:44:22;3.50;;;2.08;;
27889;SDS011;15238;49.082;9.102;2023-02-28T00:46:22;4.60;;;2.10;;
27889;SDS011;15238;49.082;9.102;2023-02-28T00:48:23;3.20;;;1.98;;
27889;SDS011;15238;49.082;9.102;2023-02-28T00:50:23;5.18;;;2.30;;
27889;SDS011;15238;49.082;9.102;2023-02-28T00:52:24;2.83;;;2.30;;
27889;SDS011;15238;49.082;9.102;2023-02-28T00:54:24;4.28;;;2.63;;
27889;SDS011;15238;49.082;9.102;2023-02-28T00:56:25;3.42;;;2.90;;
27889;SDS011;15238;49.082;9.102;2023-02-28T00:58:26;3.30;;;2.50;;
27889;SDS011;15238;49.082;9.102;2023-02-28T01:00:26;6.82;;;2.70;;
27889;SDS011;15238;49.082;9.102;2023-02-28T01:02:27;5.80;;;2.70;;
27889;SDS011;15238;49.082;9.102;2023-02-28T01:04:27;5.00;;;2.63;;
27889;SDS011;15238;49.082;9.102;2023-02-28T01:06:28;4.93;;;2.88;;
27889;SDS011;15238;49.082;9.102;2023-02-28T01:08:28;6.57;;;2.60;;
27889;SDS011;15238;49.082;9.102;2023-02-28T01:10:29;4.13;;;2.45;;
27889;SDS011;15238;49.082;9.102;2023-02-28T01:12:31;5.80;;;2.92;;
27889;SDS011;15238;49.082;9.102;2023-02-28T01:14:31;5.80;;;2.47;;
27889;SDS011;15238;49.082;9.102;2023-02-28T01:16:32;4.40;;;2.40;;
27889;SDS011;15238;49.082;9.102;2023-02-28T01:18:33;5.97;;;2.50;;
27889;SDS011;15238;49.082;9.102;2023-02-28T01:20:34;5.38;;;2.60;;
27889;SDS011;15238;49.082;9.102;2023-02-28T01:22:37;4.85;;;2.97;;
27889;SDS011;15238;49.082;9.102;2023-02-28T01:24:37;3.83;;;2.65;;
27889;SDS011;15238;49.082;9.102;2023-02-28T01:26:38;3.97;;;2.72;;
27889;SDS011;15238;49.082;9.102;2023-02-28T01:28:38;7.53;;;2.53;;
27889;SDS011;15238;49.082;9.102;2023-02-28T01:30:39;4.05;;;2.55;;
27889;SDS011;15238;49.082;9.102;2023-02-28T01:32:39;4.55;;;2.30;;
27889;SDS011;15238;49.082;9.102;2023-02-28T01:34:40;4.68;;;3.00;;
27889;SDS011;15238;49.082;9.102;2023-02-28T01:36:40;5.75;;;2.42;;
27889;SDS011;15238;49.082;9.102;2023-02-28T01:38:41;5.10;;;3.00;;
27889;SDS011;15238;49.082;9.102;2023-02-28T01:40:42;6.15;;;3.15;;
27889;SDS011;15238;49.082;9.102;2023-02-28T01:42:42;4.30;;;2.85;;
27889;SDS011;15238;49.082;9.102;2023-02-28T01:47:01;5.30;;;3.45;;
27889;SDS011;15238;49.082;9.102;2023-02-28T01:49:03;5.70;;;2.70;;
27889;SDS011;15238;49.082;9.102;2023-02-28T01:51:10;4.63;;;2.80;;
27889;SDS011;15238;49.082;9.102;2023-02-28T01:53:17;6.28;;;3.50;;
27889;SDS011;15238;49.082;9.102;2023-02-28T01:55:21;6.07;;;2.70;;
27889;SDS011;15238;49.082;9.102;2023-02-28T01:57:24;4.15;;;2.80;;
27889;SDS011;15238;49.082;9.102;2023-02-28T01:59:32;5.88;;;3.20;;
27889;SDS011;15238;49.082;9.102;2023-02-28T02:01:45;6.15;;;3.05;;
27889;SDS011;15238;49.082;9.102;2023-02-28T02:03:56;4.10;;;2.55;;
27889;SDS011;15238;49.082;9.102;2023-02-28T02:05:59;5.43;;;3.13;;
27889;SDS011;15238;49.082;9.102;2023-02-28T02:08:42;4.82;;;3.05;;
27889;SDS011;15238;49.082;9.102;2023-02-28T02:10:33;3.60;;;2.65;;
27889;SDS011;15238;49.082;9.102;2023-02-28T02:15:09;4.68;;;2.92;;
27889;SDS011;15238;49.082;9.102;2023-02-28T02:17:26;4.63;;;2.78;;
27889;SDS011;15238;49.082;9.102;2023-02-28T02:28:36;4.78;;;3.10;;
27889;SDS011;15238;49.082;9.102;2023-02-28T02:31:13;6.72;;;3.33;;
27889;SDS011;15238;49.082;9.102;2023-02-28T02:36:05;6.15;;;2.97;;
27889;SDS011;15238;49.082;9.102;2023-02-28T02:38:17;6.20;;;3.00;;
27889;SDS011;15238;49.082;9.102;2023-02-28T02:40:36;6.53;;;2.95;;
27889;SDS011;15238;49.082;9.102;2023-02-28T02:45:10;4.78;;;3.25;;
27889;SDS011;15238;49.082;9.102;2023-02-28T02:47:15;5.95;;;3.15;;
27889;SDS011;15238;49.082;9.102;2023-02-28T02:49:20;7.07;;;3.35;;
27889;SDS011;15238;49.082;9.102;2023-02-28T02:51:24;4.38;;;2.83;;
27889;SDS011;15238;49.082;9.102;2023-02-28T02:53:28;5.25;;;3.60;;
27889;SDS011;15238;49.082;9.102;2023-02-28T02:55:34;5.38;;;3.15;;
27889;SDS011;15238;49.082;9.102;2023-02-28T02:57:45;6.32;;;3.08;;
27889;SDS011;15238;49.082;9.102;2023-02-28T03:00:08;5.72;;;3.10;;
27889;SDS011;15238;49.082;9.102;2023-02-28T03:02:11;5.65;;;3.38;;
27889;SDS011;15238;49.082;9.102;2023-02-28T03:04:16;5.03;;;3.03;;
27889;SDS011;15238;49.082;9.102;2023-02-28T03:06:19;4.13;;;2.50;;
27889;SDS011;15238;49.082;9.102;2023-02-28T03:08:19;4.00;;;2.90;;
27889;SDS011;15238;49.082;9.102;2023-02-28T03:10:30;4.07;;;3.00;;
27889;SDS011;15238;49.082;9.102;2023-02-28T03:12:40;4.07;;;2.87;;
27889;SDS011;15238;49.082;9.102;2023-02-28T03:21:28;7.22;;;3.53;;
27889;SDS011;15238;49.082;9.102;2023-02-28T03:24:26;5.55;;;3.42;;
27889;SDS011;15238;49.082;9.102;2023-02-28T03:26:13;4.78;;;2.90;;
27889;SDS011;15238;49.082;9.102;2023-02-28T03:30:49;4.18;;;2.90;;
27889;SDS011;15238;49.082;9.102;2023-02-28T03:32:57;8.10;;;3.42;;
27889;SDS011;15238;49.082;9.102;2023-02-28T03:35:20;4.32;;;3.08;;
27889;SDS011;15238;49.082;9.102;2023-02-28T03:37:23;6.28;;;3.15;;
27889;SDS011;15238;49.082;9.102;2023-02-28T03:41:35;3.90;;;3.03;;
27889;SDS011;15238;49.082;9.102;2023-02-28T03:43:39;8.48;;;3.80;;
27889;SDS011;15238;49.082;9.102;2023-02-28T03:45:43;7.75;;;3.50;;
27889;SDS011;15238;49.082;9.102;2023-02-28T03:49:57;4.68;;;3.33;;
27889;SDS011;15238;49.082;9.102;2023-02-28T03:52:15;4.93;;;3.30;;
27889;SDS011;15238;49.082;9.102;2023-02-28T03:54:19;4.90;;;3.00;;
27889;SDS011;15238;49.082;9.102;2023-02-28T03:56:30;4.65;;;2.85;;
27889;SDS011;15238;49.082;9.102;2023-02-28T04:00:47;5.20;;;3.45;;
27889;SDS011;15238;49.082;9.102;2023-02-28T04:02:53;7.03;;;3.08;;
27889;SDS011;15238;49.082;9.102;2023-02-28T04:04:54;5.07;;;3.30;;
27889;SDS011;15238;49.082;9.102;2023-02-28T04:07:00;4.93;;;3.40;;
27889;SDS011;15238;49.082;9.102;2023-02-28T04:09:05;4.95;;;3.30;;
27889;SDS011;15238;49.082;9.102;2023-02-28T04:11:18;7.90;;;3.78;;
27889;SDS011;15238;49.082;9.102;2023-02-28T04:13:36;5.47;;;3.90;;
27889;SDS011;15238;49.082;9.102;2023-02-28T04:15:36;6.60;;;3.70;;
27889;SDS011;15238;49.082;9.102;2023-02-28T04:17:37;5.10;;;3.17;;
27889;SDS011;15238;49.082;9.102;2023-02-28T04:19:37;7.07;;;3.70;;
27889;SDS011;15238;49.082;9.102;2023-02-28T04:21:39;5.10;;;3.33;;
27889;SDS011;15238;49.082;9.102;2023-02-28T04:23:42;5.80;;;3.92;;
27889;SDS011;15238;49.082;9.102;2023-02-28T04:25:42;7.13;;;3.83;;
27889;SDS011;15238;49.082;9.102;2023-02-28T04:27:43;5.68;;;3.67;;
27889;SDS011;15238;49.082;9.102;2023-02-28T04:29:44;5.55;;;3.67;;
27889;SDS011;15238;49.082;9.102;2023-02-28T04:31:45;5.35;;;3.80;;
27889;SDS011;15238;49.082;9.102;2023-02-28T04:33:46;4.97;;;3.53;;
27889;SDS011;15238;49.082;9.102;2023-02-28T04:35:46;6.10;;;3.67;;
27889;SDS011;15238;49.082;9.102;2023-02-28T04:37:47;6.63;;;3.63;;
27889;SDS011;15238;49.082;9.102;2023-02-28T04:39:47;4.80;;;3.78;;
27889;SDS011;15238;49.082;9.102;2023-02-28T04:41:48;5.30;;;3.70;;
27889;SDS011;15238;49.082;9.102;2023-02-28T04:43:48;7.47;;;3.63;;
27889;SDS011;15238;49.082;9.102;2023-02-28T04:45:49;5.88;;;3.80;;
27889;SDS011;15238;49.082;9.102;2023-02-28T04:47:49;7.00;;;4.10;;
27889;SDS011;15238;49.082;9.102;2023-02-28T04:49:50;6.18;;;3.97;;
27889;SDS011;15238;49.082;9.102;2023-02-28T04:51:50;4.20;;;3.22;;
27889;SDS011;15238;49.082;9.102;2023-02-28T04:53:51;5.90;;;3.90;;
27889;SDS011;15238;49.082;9.102;2023-02-28T04:55:52;6.75;;;3.60;;
27889;SDS011;15238;49.082;9.102;2023-02-28T04:57:53;5.38;;;3.58;;
27889;SDS011;15238;49.082;9.102;2023-02-28T04:59:53;5.07;;;3.80;;
27889;SDS011;15238;49.082;9.102;2023-02-28T05:01:53;5.78;;;3.78;;
27889;SDS011;15238;49.082;9.102;2023-02-28T05:03:55;5.97;;;3.90;;
27889;SDS011;15238;49.082;9.102;2023-02-28T05:05:57;6.93;;;4.35;;
27889;SDS011;15238;49.082;9.102;2023-02-28T05:07:57;7.30;;;4.40;;
27889;SDS011;15238;49.082;9.102;2023-02-28T05:09:58;5.85;;;4.10;;
27889;SDS011;15238;49.082;9.102;2023-02-28T05:11:58;6.68;;;3.88;;
27889;SDS011;15238;49.082;9.102;2023-02-28T05:13:59;7.18;;;3.83;;
27889;SDS011;15238;49.082;9.102;2023-02-28T05:16:00;4.68;;;3.42;;
27889;SDS011;15238;49.082;9.102;2023-02-28T05:18:00;5.03;;;3.70;;
27889;SDS011;15238;49.082;9.102;2023-02-28T05:20:01;5.97;;;3.72;;
27889;SDS011;15238;49.082;9.102;2023-02-28T05:22:03;6.75;;;3.58;;
27889;SDS011;15238;49.082;9.102;2023-02-28T05:24:05;7.57;;;4.20;;
27889;SDS011;15238;49.082;9.102;2023-02-28T05:26:10;9.07;;;4.15;;
27889;SDS011;15238;49.082;9.102;2023-02-28T05:28:10;4.75;;;3.22;;
27889;SDS011;15238;49.082;9.102;2023-02-28T05:30:11;6.18;;;4.05;;
27889;SDS011;15238;49.082;9.102;2023-02-28T05:32:12;11.65;;;5.53;;
27889;SDS011;15238;49.082;9.102;2023-02-28T05:34:12;7.68;;;5.15;;
27889;SDS011;15238;49.082;9.102;2023-02-28T05:36:15;6.45;;;4.53;;
27889;SDS011;15238;49.082;9.102;2023-02-28T05:38:16;9.10;;;4.43;;
27889;SDS011;15238;49.082;9.102;2023-02-28T05:40:17;8.20;;;4.15;;
27889;SDS011;15238;49.082;9.102;2023-02-28T05:42:20;6.50;;;3.70;;
27889;SDS011;15238;49.082;9.102;2023-02-28T05:44:20;6.05;;;3.97;;
27889;SDS011;15238;49.082;9.102;2023-02-28T05:46:21;6.57;;;3.97;;
27889;SDS011;15238;49.082;9.102;2023-02-28T05:48:21;5.80;;;4.03;;
27889;SDS011;15238;49.082;9.102;2023-02-28T05:50:22;7.45;;;4.32;;
27889;SDS011;15238;49.082;9.102;2023-02-28T05:52:22;6.10;;;4.10;;
27889;SDS011;15238;49.082;9.102;2023-02-28T05:54:23;5.10;;;3.47;;
27889;SDS011;15238;49.082;9.102;2023-02-28T05:56:23;7.63;;;4.88;;
27889;SDS011;15238;49.082;9.102;2023-02-28T05:58:24;6.28;;;4.05;;
27889;SDS011;15238;49.082;9.102;2023-02-28T06:00:29;5.05;;;3.88;;
27889;SDS011;15238;49.082;9.102;2023-02-28T06:02:29;5.95;;;3.90;;
27889;SDS011;15238;49.082;9.102;2023-02-28T06:04:30;8.70;;;4.15;;
27889;SDS011;15238;49.082;9.102;2023-02-28T06:06:30;7.95;;;3.95;;
27889;SDS011;15238;49.082;9.102;2023-02-28T06:08:31;6.53;;;4.32;;
27889;SDS011;15238;49.082;9.102;2023-02-28T06:10:31;6.57;;;4.18;;
27889;SDS011;15238;49.082;9.102;2023-02-28T06:12:32;7.00;;;3.70;;
27889;SDS011;15238;49.082;9.102;2023-02-28T06:14:33;6.50;;;3.65;;
27889;SDS011;15238;49.082;9.102;2023-02-28T06:16:34;8.20;;;4.50;;
27889;SDS011;15238;49.082;9.102;2023-02-28T06:18:35;5.60;;;3.72;;
27889;SDS011;15238;49.082;9.102;2023-02-28T06:20:36;9.77;;;4.50;;
27889;SDS011;15238;49.082;9.102;2023-02-28T06:22:36;6.57;;;4.13;;
27889;SDS011;15238;49.082;9.102;2023-02-28T06:24:37;7.10;;;4.10;;
27889;SDS011;15238;49.082;9.102;2023-02-28T06:26:40;10.60;;;4.50;;
27889;SDS011;15238;49.082;9.102;2023-02-28T06:28:41;6.95;;;4.07;;
27889;SDS011;15238;49.082;9.102;2023-02-28T06:30:41;7.38;;;4.43;;
27889;SDS011;15238;49.082;9.102;2023-02-28T06:32:42;5.93;;;4.03;;
27889;SDS011;15238;49.082;9.102;2023-02-28T06:34:42;6.57;;;4.25;;
27889;SDS011;15238;49.082;9.102;2023-02-28T06:36:43;6.55;;;4.20;;
27889;SDS011;15238;49.082;9.102;2023-02-28T06:38:44;6.13;;;3.83;;
27889;SDS011;15238;49.082;9.102;2023-02-28T06:40:44;8.13;;;4.18;;
27889;SDS011;15238;49.082;9.102;2023-02-28T06:42:53;7.90;;;4.68;;
27889;SDS011;15238;49.082;9.102;2023-02-28T06:44:54;6.55;;;4.20;;
27889;SDS011;15238;49.082;9.102;2023-02-28T06:46:55;7.10;;;4.57;;
27889;SDS011;15238;49.082;9.102;2023-02-28T06:48:56;6.82;;;4.53;;
27889;SDS011;15238;49.082;9.102;2023-02-28T06:51:06;8.15;;;4.70;;
27889;SDS011;15238;49.082;9.102;2023-02-28T06:53:08;8.13;;;4.75;;
27889;SDS011;15238;49.082;9.102;2023-02-28T06:55:09;9.68;;;4.72;;
27889;SDS011;15238;49.082;9.102;2023-02-28T06:57:09;10.30;;;4.75;;
27889;SDS011;15238;49.082;9.102;2023-02-28T06:59:10;9.52;;;4.90;;
27889;SDS011;15238;49.082;9.102;2023-02-28T07:01:10;6.88;;;4.30;;
27889;SDS011;15238;49.082;9.102;2023-02-28T07:03:13;9.00;;;4.45;;
27889;SDS011;15238;49.082;9.102;2023-02-28T07:05:15;9.48;;;5.05;;
27889;SDS011;15238;49.082;9.102;2023-02-28T07:07:15;9.80;;;4.57;;
27889;SDS011;15238;49.082;9.102;2023-02-28T07:09:16;7.80;;;4.00;;
27889;SDS011;15238;49.082;9.102;2023-02-28T07:11:17;6.47;;;3.95;;
27889;SDS011;15238;49.082;9.102;2023-02-28T07:13:17;8.30;;;4.90;;
27889;SDS011;15238;49.082;9.102;2023-02-28T07:15:18;7.22;;;4.40;;
27889;SDS011;15238;49.082;9.102;2023-02-28T07:17:18;7.63;;;4.40;;
27889;SDS011;15238;49.082;9.102;2023-02-28T07:19:19;10.45;;;5.00;;
27889;SDS011;15238;49.082;9.102;2023-02-28T07:21:20;8.13;;;4.85;;
27889;SDS011;15238;49.082;9.102;2023-02-28T07:23:21;10.07;;;5.20;;
27889;SDS011;15238;49.082;9.102;2023-02-28T07:25:22;8.57;;;4.75;;
27889;SDS011;15238;49.082;9.102;2023-02-28T07:27:24;8.10;;;4.30;;
27889;SDS011;15238;49.082;9.102;2023-02-28T07:29:25;8.43;;;5.13;;
27889;SDS011;15238;49.082;9.102;2023-02-28T07:31:25;12.60;;;4.85;;
27889;SDS011;15238;49.082;9.102;2023-02-28T07:33:26;8.60;;;4.72;;
27889;SDS011;15238;49.082;9.102;2023-02-28T07:35:26;10.00;;;5.28;;
27889;SDS011;15238;49.082;9.102;2023-02-28T07:37:27;7.72;;;5.05;;
27889;SDS011;15238;49.082;9.102;2023-02-28T07:39:36;9.20;;;4.60;;
27889;SDS011;15238;49.082;9.102;2023-02-28T07:41:37;8.65;;;5.57;;
27889;SDS011;15238;49.082;9.102;2023-02-28T07:43:43;7.20;;;4.78;;
27889;SDS011;15238;49.082;9.102;2023-02-28T07:45:47;9.38;;;5.38;;
27889;SDS011;15238;49.082;9.102;2023-02-28T07:47:47;9.18;;;4.82;;
27889;SDS011;15238;49.082;9.102;2023-02-28T07:49:48;10.20;;;5.22;;
27889;SDS011;15238;49.082;9.102;2023-02-28T07:51:49;9.48;;;5.32;;
27889;SDS011;15238;49.082;9.102;2023-02-28T07:53:50;6.93;;;4.70;;
27889;SDS011;15238;49.082;9.102;2023-02-28T07:55:50;7.35;;;4.70;;
27889;SDS011;15238;49.082;9.102;2023-02-28T07:57:54;8.77;;;4.70;;
27889;SDS011;15238;49.082;9.102;2023-02-28T07:59:56;9.05;;;5.47;;
27889;SDS011;15238;49.082;9.102;2023-02-28T08:01:57;8.85;;;4.80;;
27889;SDS011;15238;49.082;9.102;2023-02-28T08:03:59;7.32;;;4.80;;
27889;SDS011;15238;49.082;9.102;2023-02-28T08:06:00;7.75;;;4.78;;
27889;SDS011;15238;49.082;9.102;2023-02-28T08:08:02;9.18;;;5.03;;
27889;SDS011;15238;49.082;9.102;2023-02-28T08:10:03;10.82;;;5.53;;
27889;SDS011;15238;49.082;9.102;2023-02-28T08:12:06;10.73;;;5.68;;
27889;SDS011;15238;49.082;9.102;2023-02-28T08:14:07;11.23;;;5.72;;
27889;SDS011;15238;49.082;9.102;2023-02-28T08:16:08;9.55;;;5.28;;
27889;SDS011;15238;49.082;9.102;2023-02-28T08:18:08;7.55;;;5.00;;
27889;SDS011;15238;49.082;9.102;2023-02-28T08:20:09;9.00;;;5.30;;
27889;SDS011;15238;49.082;9.102;2023-02-28T08:22:10;7.80;;;4.93;;
27889;SDS011;15238;49.082;9.102;2023-02-28T08:24:11;8.65;;;5.10;;
27889;SDS011;15238;49.082;9.102;2023-02-28T08:26:11;8.82;;;5.43;;
27889;SDS011;15238;49.082;9.102;2023-02-28T08:28:12;8.65;;;5.43;;
27889;SDS011;15238;49.082;9.102;2023-02-28T08:30:13;7.40;;;4.68;;
27889;SDS011;15238;49.082;9.102;2023-02-28T08:32:14;8.00;;;5.30;;
27889;SDS011;15238;49.082;9.102;2023-02-28T08:34:15;8.43;;;5.70;;
27889;SDS011;15238;49.082;9.102;2023-02-28T08:36:16;8.70;;;5.80;;
27889;SDS011;15238;49.082;9.102;2023-02-28T08:38:17;11.27;;;5.38;;
27889;SDS011;15238;49.082;9.102;2023-02-28T08:40:18;10.27;;;5.55;;
27889;SDS011;15238;49.082;9.102;2023-02-28T08:42:18;8.70;;;5.35;;
27889;SDS011;15238;49.082;9.102;2023-02-28T08:44:19;8.73;;;5.07;;
27889;SDS011;15238;49.082;9.102;2023-02-28T08:46:20;8.52;;;5.35;;
27889;SDS011;15238;49.082;9.102;2023-02-28T08:48:20;8.52;;;5.03;;
27889;SDS011;15238;49.082;9.102;2023-02-28T08:50:21;8.68;;;5.07;;
27889;SDS011;15238;49.082;9.102;2023-02-28T08:52:22;8.05;;;5.32;;
27889;SDS011;15238;49.082;9.102;2023-02-28T08:54:23;12.65;;;5.78;;
27889;SDS011;15238;49.082;9.102;2023-02-28T08:56:24;9.50;;;5.55;;
27889;SDS011;15238;49.082;9.102;2023-02-28T08:58:24;10.43;;;5.05;;
27889;SDS011;15238;49.082;9.102;2023-02-28T09:00:25;8.60;;;5.70;;
27889;SDS011;15238;49.082;9.102;2023-02-28T09:02:26;7.10;;;5.13;;
27889;SDS011;15238;49.082;9.102;2023-02-28T09:04:27;9.02;;;5.35;;
27889;SDS011;15238;49.082;9.102;2023-02-28T09:06:30;11.80;;;5.60;;
27889;SDS011;15238;49.082;9.102;2023-02-28T09:08:32;7.35;;;4.80;;
27889;SDS011;15238;49.082;9.102;2023-02-28T09:10:32;9.93;;;4.53;;
27889;SDS011;15238;49.082;9.102;2023-02-28T09:12:34;11.35;;;5.57;;
27889;SDS011;15238;49.082;9.102;2023-02-28T09:14:35;9.23;;;5.40;;
27889;SDS011;15238;49.082;9.102;2023-02-28T09:16:36;7.90;;;5.00;;
27889;SDS011;15238;49.082;9.102;2023-02-28T09:18:37;7.55;;;5.20;;
27889;SDS011;15238;49.082;9.102;2023-02-28T09:20:38;7.93;;;4.88;;
27889;SDS011;15238;49.082;9.102;2023-02-28T09:22:40;8.13;;;5.20;;
27889;SDS011;15238;49.082;9.102;2023-02-28T09:24:40;11.18;;;5.38;;
27889;SDS011;15238;49.082;9.102;2023-02-28T09:26:41;8.13;;;4.90;;
27889;SDS011;15238;49.082;9.102;2023-02-28T09:28:42;8.18;;;5.50;;
27889;SDS011;15238;49.082;9.102;2023-02-28T09:30:46;7.95;;;5.45;;
27889;SDS011;15238;49.082;9.102;2023-02-28T09:32:47;13.05;;;5.50;;
27889;SDS011;15238;49.082;9.102;2023-02-28T09:34:51;7.18;;;4.82;;
27889;SDS011;15238;49.082;9.102;2023-02-28T09:36:52;7.65;;;5.63;;
27889;SDS011;15238;49.082;9.102;2023-02-28T09:38:54;10.18;;;5.30;;
27889;SDS011;15238;49.082;9.102;2023-02-28T09:42:57;11.27;;;5.25;;
27889;SDS011;15238;49.082;9.102;2023-02-28T09:45:05;10.45;;;5.90;;
27889;SDS011;15238;49.082;9.102;2023-02-28T09:47:56;8.13;;;5.63;;
27889;SDS011;15238;49.082;9.102;2023-02-28T09:49:44;9.88;;;5.68;;
27889;SDS011;15238;49.082;9.102;2023-02-28T09:53:59;9.27;;;5.72;;
27889;SDS011;15238;49.082;9.102;2023-02-28T09:56:02;9.43;;;5.38;;
27889;SDS011;15238;49.082;9.102;2023-02-28T09:58:15;8.43;;;5.43;;
27889;SDS011;15238;49.082;9.102;2023-02-28T10:00:43;9.75;;;5.88;;
27889;SDS011;15238;49.082;9.102;2023-02-28T10:05:27;8.43;;;6.20;;
27889;SDS011;15238;49.082;9.102;2023-02-28T10:09:44;11.65;;;5.93;;
27889;SDS011;15238;49.082;9.102;2023-02-28T10:11:46;8.80;;;5.43;;
27889;SDS011;15238;49.082;9.102;2023-02-28T10:13:54;15.32;;;6.38;;
27889;SDS011;15238;49.082;9.102;2023-02-28T10:16:10;7.93;;;5.50;;
27889;SDS011;15238;49.082;9.102;2023-02-28T10:18:18;11.13;;;5.60;;
27889;SDS011;15238;49.082;9.102;2023-02-28T10:20:24;9.82;;;5.82;;
27889;SDS011;15238;49.082;9.102;2023-02-28T10:22:34;9.20;;;5.55;;
27889;SDS011;15238;49.082;9.102;2023-02-28T10:24:48;7.82;;;5.55;;
27889;SDS011;15238;49.082;9.102;2023-02-28T10:26:56;9.45;;;5.65;;
27889;SDS011;15238;49.082;9.102;2023-02-28T10:29:01;8.75;;;5.88;;
27889;SDS011;15238;49.082;9.102;2023-02-28T10:31:02;9.95;;;6.15;;
27889;SDS011;15238;49.082;9.102;2023-02-28T10:33:03;10.00;;;6.22;;
27889;SDS011;15238;49.082;9.102;2023-02-28T10:35:10;10.98;;;5.85;;
27889;SDS011;15238;49.082;9.102;2023-02-28T10:37:23;10.30;;;6.28;;
27889;SDS011;15238;49.082;9.102;2023-02-28T10:39:37;11.05;;;6.20;;
27889;SDS011;15238;49.082;9.102;2023-02-28T10:41:43;7.90;;;5.53;;
27889;SDS011;15238;49.082;9.102;2023-02-28T10:43:43;7.57;;;5.38;;
27889;SDS011;15238;49.082;9.102;2023-02-28T10:52:46;10.40;;;5.68;;
27889;SDS011;15238;49.082;9.102;2023-02-28T10:54:47;9.60;;;5.82;;
27889;SDS011;15238;49.082;9.102;2023-02-28T11:01:40;9.38;;;6.10;;
27889;SDS011;15238;49.082;9.102;2023-02-28T11:03:43;9.35;;;6.15;;
27889;SDS011;15238;49.082;9.102;2023-02-28T11:05:44;8.80;;;5.72;;
27889;SDS011;15238;49.082;9.102;2023-02-28T11:07:50;8.07;;;5.85;;
27889;SDS011;15238;49.082;9.102;2023-02-28T11:09:55;11.95;;;5.70;;
27889;SDS011;15238;49.082;9.102;2023-02-28T11:11:59;11.63;;;5.88;;
27889;SDS011;15238;49.082;9.102;2023-02-28T11:14:04;8.75;;;4.80;;
27889;SDS011;15238;49.082;9.102;2023-02-28T11:16:07;7.78;;;5.57;;
27889;SDS011;15238;49.082;9.102;2023-02-28T11:20:27;11.00;;;6.53;;
27889;SDS011;15238;49.082;9.102;2023-02-28T11:22:31;10.07;;;6.43;;
27889;SDS011;15238;49.082;9.102;2023-02-28T11:24:42;8.80;;;5.70;;
27889;SDS011;15238;49.082;9.102;2023-02-28T11:26:46;7.80;;;5.15;;
27889;SDS011;15238;49.082;9.102;2023-02-28T11:28:51;8.13;;;5.97;;
27889;SDS011;15238;49.082;9.102;2023-02-28T11:31:23;10.40;;;5.75;;
27889;SDS011;15238;49.082;9.102;2023-02-28T11:35:36;9.90;;;5.78;;
27889;SDS011;15238;49.082;9.102;2023-02-28T11:37:39;9.38;;;5.88;;
27889;SDS011;15238;49.082;9.102;2023-02-28T11:39:40;9.88;;;5.25;;
27889;SDS011;15238;49.082;9.102;2023-02-28T11:46:20;10.23;;;6.20;;
27889;SDS011;15238;49.082;9.102;2023-02-28T11:48:29;10.13;;;6.03;;
27889;SDS011;15238;49.082;9.102;2023-02-28T11:57:51;9.70;;;6.38;;
27889;SDS011;15238;49.082;9.102;2023-02-28T12:00:17;10.77;;;6.38;;
27889;SDS011;15238;49.082;9.102;2023-02-28T12:03:21;9.85;;;5.70;;
27889;SDS011;15238;49.082;9.102;2023-02-28T12:08:01;10.90;;;5.93;;
27889;SDS011;15238;49.082;9.102;2023-02-28T12:24:34;12.18;;;6.85;;
27889;SDS011;15238;49.082;9.102;2023-02-28T12:27:00;9.38;;;6.38;;
27889;SDS011;15238;49.082;9.102;2023-02-28T12:31:36;8.90;;;6.40;;
27889;SDS011;15238;49.082;9.102;2023-02-28T12:33:48;9.07;;;6.05;;
27889;SDS011;15238;49.082;9.102;2023-02-28T12:35:54;10.57;;;6.38;;
27889;SDS011;15238;49.082;9.102;2023-02-28T12:38:02;10.88;;;6.18;;
27889;SDS011;15238;49.082;9.102;2023-02-28T12:40:11;10.40;;;6.28;;
27889;SDS011;15238;49.082;9.102;2023-02-28T12:42:19;8.70;;;6.45;;
27889;SDS011;15238;49.082;9.102;2023-02-28T12:44:42;12.88;;;6.95;;
27889;SDS011;15238;49.082;9.102;2023-02-28T12:46:50;11.60;;;7.13;;
27889;SDS011;15238;49.082;9.102;2023-02-28T12:48:55;8.45;;;5.28;;
27889;SDS011;15238;49.082;9.102;2023-02-28T12:50:56;10.65;;;7.45;;
27889;SDS011;15238;49.082;9.102;2023-02-28T12:57:48;12.20;;;7.15;;
27889;SDS011;15238;49.082;9.102;2023-02-28T12:59:57;7.70;;;6.05;;
27889;SDS011;15238;49.082;9.102;2023-02-28T13:04:53;13.15;;;6.32;;
27889;SDS011;15238;49.082;9.102;2023-02-28T13:09:33;20.25;;;7.50;;
27889;SDS011;15238;49.082;9.102;2023-02-28T13:11:41;10.77;;;6.68;;
27889;SDS011;15238;49.082;9.102;2023-02-28T13:13:45;8.88;;;7.38;;
27889;SDS011;15238;49.082;9.102;2023-02-28T13:15:58;11.32;;;6.97;;
27889;SDS011;15238;49.082;9.102;2023-02-28T13:18:01;9.20;;;6.57;;
27889;SDS011;15238;49.082;9.102;2023-02-28T13:20:01;9.65;;;7.28;;
27889;SDS011;15238;49.082;9.102;2023-02-28T13:22:02;13.75;;;6.70;;
27889;SDS011;15238;49.082;9.102;2023-02-28T13:24:04;10.65;;;6.93;;
27889;SDS011;15238;49.082;9.102;2023-02-28T13:26:06;12.38;;;7.18;;
27889;SDS011;15238;49.082;9.102;2023-02-28T13:28:12;11.32;;;6.63;;
27889;SDS011;15238;49.082;9.102;2023-02-28T13:35:36;10.40;;;6.28;;
27889;SDS011;15238;49.082;9.102;2023-02-28T13:37:43;11.73;;;7.25;;
27889;SDS011;15238;49.082;9.102;2023-02-28T13:39:46;10.95;;;6.50;;
27889;SDS011;15238;49.082;9.102;2023-02-28T13:41:51;9.95;;;6.28;;
27889;SDS011;15238;49.082;9.102;2023-02-28T13:44:01;12.30;;;6.20;;
27889;SDS011;15238;49.082;9.102;2023-02-28T13:46:12;10.25;;;6.70;;
27889;SDS011;15238;49.082;9.102;2023-02-28T13:48:19;10.85;;;7.30;;
27889;SDS011;15238;49.082;9.102;2023-02-28T13:52:28;11.38;;;6.93;;
27889;SDS011;15238;49.082;9.102;2023-02-28T13:56:42;12.05;;;7.28;;
27889;SDS011;15238;49.082;9.102;2023-02-28T14:01:45;9.73;;;7.25;;
27889;SDS011;15238;49.082;9.102;2023-02-28T14:06:35;9.38;;;6.78;;
27889;SDS011;15238;49.082;9.102;2023-02-28T14:08:42;9.32;;;6.45;;
27889;SDS011;15238;49.082;9.102;2023-02-28T14:11:09;11.27;;;7.22;;
27889;SDS011;15238;49.082;9.102;2023-02-28T14:13:45;11.32;;;7.07;;
27889;SDS011;15238;49.082;9.102;2023-02-28T14:16:06;10.40;;;6.35;;
27889;SDS011;15238;49.082;9.102;2023-02-28T14:18:27;10.50;;;7.05;;
27889;SDS011;15238;49.082;9.102;2023-02-28T14:20:31;11.18;;;7.28;;
27889;SDS011;15238;49.082;9.102;2023-02-28T14:22:47;15.88;;;7.20;;
27889;SDS011;15238;49.082;9.102;2023-02-28T14:27:33;11.20;;;7.25;;